Latest Weather Observations for Witchcliffe

IDW60801

Issued at 7:33 pm WST Friday 13 December 2019 (issued every 10 minutes, with the page automatically refreshed every 10 minutes)

About weather observations | Map of weather stations | Latest weather observations for WA | Other Formats
Station Details ID: 009746 Name: WITCHCLIFFE Lat: -34.03 Lon: 115.10 Height: 80.0 m
Data from the previous 72 hours. | See also: Recent months at Witchcliffe
Date/Time
WST
Temp
°C
App
Temp
°C
Dew
Point
°C
Rel
Hum
%
Delta-T
°C
Wind Press
QNH
hPa
Press
MSL
hPa
Rain since
9am
mm
Dir  Spd
km/h
Gust
km/h
Spd
kts
Gust
kts
13/07:30pm 24.2 22.5 7.4 34 8.8 SSW 6 9 3 5 1015.9 1015.7 0.0
13/07:00pm 26.7 24.3 7.2 29 10.4 SSW 9 13 5 7 1015.7 1015.5 0.0
13/06:30pm 29.2 26.5 7.2 25 11.9 SW 11 13 6 7 1015.7 1015.5 0.0
13/06:00pm 30.7 28.2 6.6 22 13.0 SW 9 15 5 8 1015.8 1015.6 0.0
13/05:30pm 31.3 28.2 5.7 20 13.6 WSW 11 17 6 9 1015.9 1015.7 0.0
13/05:00pm 31.8 28.3 5.3 19 14.0 WSW 13 19 7 10 1015.9 1015.7 0.0
13/04:30pm 32.5 28.9 5.1 18 14.5 WSW 13 20 7 11 1016.0 1015.8 0.0
13/04:00pm 33.3 30.0 6.6 19 14.6 W 13 19 7 10 1016.1 1015.9 0.0
13/03:30pm 33.9 30.9 7.8 20 14.6 W 13 20 7 11 1016.2 1016.0 0.0
13/03:00pm 33.5 29.0 5.9 18 14.9 NNW 19 26 10 14 1016.3 1016.1 0.0
13/02:30pm 33.5 29.0 4.2 16 15.4 NW 17 26 9 14 1016.5 1016.3 0.0
13/02:00pm 33.6 28.0 3.4 15 15.7 NW 22 32 12 17 1016.8 1016.6 0.0
13/01:30pm 35.1 29.9 3.6 14 16.5 WNW 20 33 11 18 1016.8 1016.6 0.0
13/01:00pm 35.4 29.5 3.9 14 16.6 NW 24 37 13 20 1016.9 1016.7 0.0
13/12:30pm 36.1 30.1 5.4 15 16.7 NW 26 37 14 20 1017.0 1016.8 0.0
13/12:00pm 35.8 29.6 4.2 14 16.8 NW 26 39 14 21 1017.3 1017.1 0.0
13/11:30am 35.8 29.6 4.2 14 16.8 NW 26 41 14 22 1017.4 1017.2 0.0
13/11:00am 35.6 30.3 6.8 17 15.9 N 24 32 13 17 1017.4 1017.2 0.0
13/10:30am 35.0 29.4 7.1 18 15.5 N 26 35 14 19 1017.5 1017.3 0.0
13/10:00am 34.1 28.9 7.2 19 14.9 N 24 33 13 18 1017.6 1017.4 0.0
13/09:30am 32.3 27.8 8.5 23 13.3 N 22 30 12 16 1017.6 1017.4 0.0
13/09:00am 31.3 26.1 8.9 25 12.5 N 26 35 14 19 1017.7 1017.5 0.0
13/08:30am 29.9 26.6 9.4 28 11.5 N 17 28 9 15 1017.9 1017.7 0.0
13/08:00am 28.2 26.7 10.4 33 10.1 NNE 9 17 5 9 1018.0 1017.8 0.0
13/07:30am 25.7 24.5 11.5 41 8.1 ENE 9 11 5 6 1017.9 1017.7 0.0
13/07:00am 22.2 23.5 15.1 64 4.2 E 2 7 1 4 1017.7 1017.5 0.0
13/06:30am 19.5 21.2 15.2 76 2.5 CALM 0 0 0 0 1017.5 1017.3 0.0
13/06:00am 17.3 19.1 15.6 90 1.0 CALM 0 0 0 0 1017.5 1017.3 0.0
13/05:30am 15.4 15.6 13.2 87 1.2 SE 4 7 2 4 1017.4 1017.2 0.0
13/05:00am 15.0 15.9 13.0 88 1.1 CALM 0 0 0 0 1017.3 1017.1 0.0
13/04:30am 15.3 16.6 14.0 92 0.7 CALM 0 0 0 0 1017.1 1016.9 0.0
13/04:00am 15.7 17.1 14.4 92 0.7 CALM 0 0 0 0 1017.0 1016.8 0.0
13/03:30am 15.7 17.0 14.2 91 0.9 CALM 0 0 0 0 1017.0 1016.8 0.0
13/03:00am 16.2 17.8 14.9 92 0.8 CALM 0 4 0 2 1017.2 1017.0 0.0
13/02:30am 16.5 16.4 15.0 91 0.9 SSE 9 11 5 6 1017.4 1017.2 0.0
13/02:00am 16.6 18.2 14.8 89 1.0 CALM 0 0 0 0 1017.5 1017.3 0.0
13/01:30am 17.1 17.6 15.1 88 1.2 ESE 6 9 3 5 1017.7 1017.5 0.0
13/01:00am 17.9 18.4 15.5 86 1.4 SE 7 11 4 6 1018.0 1017.8 0.0
13/12:30am 18.4 19.1 16.0 86 1.4 SE 7 11 4 6 1018.2 1018.0 0.0
13/12:00am 18.5 18.8 15.9 85 1.5 SE 9 11 5 6 1018.3 1018.1 0.0
 
Date/Time
WST
Temp
°C
App
Temp
°C
Dew
Point
°C
Rel
Hum
%
Delta-T
°C
Wind Press
QNH
hPa
Press
MSL
hPa
Rain since
9am
mm
Dir  Spd
km/h
Gust
km/h
Spd
kts
Gust
kts
12/11:30pm 18.1 18.7 15.4 84 1.6 SE 6 7 3 4 1018.4 1018.2 0.0
12/11:00pm 19.1 19.2 15.6 80 2.1 SE 9 11 5 6 1018.7 1018.6 0.0
12/10:30pm 19.0 19.6 15.7 81 2.0 SE 7 11 4 6 1018.8 1018.7 0.0
12/10:00pm 19.3 19.9 15.2 77 2.4 SE 6 7 3 4 1018.9 1018.8 0.0
12/09:30pm 19.9 21.4 14.7 72 3.0 CALM 0 0 0 0 1018.9 1018.8 0.0
12/09:00pm 20.4 20.9 14.1 67 3.7 SE 4 7 2 4 1018.8 1018.7 0.0
12/08:30pm 21.4 20.9 13.8 62 4.4 SSE 9 11 5 6 1018.7 1018.6 0.0
12/08:00pm 21.9 21.0 13.8 60 4.7 SSE 11 13 6 7 1018.6 1018.5 0.0
12/07:30pm 22.6 21.5 14.4 60 4.8 SSE 13 19 7 10 1018.6 1018.5 0.0
12/07:00pm 23.9 22.3 14.9 57 5.4 SSE 17 20 9 11 1018.4 1018.2 0.0
12/06:30pm 25.1 23.1 14.9 53 6.1 SSE 19 26 10 14 1018.3 1018.1 0.0
12/06:00pm 26.8 24.0 14.2 46 7.5 SSE 22 30 12 16 1018.1 1017.9 0.0
12/05:30pm 28.3 25.5 14.2 42 8.5 SSE 22 32 12 17 1017.9 1017.7 0.0
12/05:00pm 29.4 26.0 13.6 38 9.4 SSE 24 30 13 16 1017.9 1017.7 0.0
12/04:30pm 30.7 28.3 13.9 36 10.2 SSE 19 26 10 14 1017.9 1017.7 0.0
12/04:00pm 31.2 28.5 13.5 34 10.6 S 20 26 11 14 1018.1 1017.9 0.0
12/03:30pm 32.2 28.2 10.3 26 12.6 S 22 30 12 16 1018.4 1018.2 0.0
12/03:00pm 31.9 28.8 12.2 30 11.6 SSE 20 26 11 14 1018.6 1018.5 0.0
12/02:30pm 32.6 30.1 14.2 32 11.3 SSE 20 26 11 14 1019.0 1018.9 0.0
12/02:00pm 33.2 30.6 13.3 30 12.0 SSE 19 26 10 14 1019.3 1019.2 0.0
12/01:30pm 32.9 30.4 14.0 32 11.5 SSE 20 28 11 15 1019.3 1019.2 0.0
12/01:00pm 33.5 31.1 14.5 31 11.7 S 20 28 11 15 1019.3 1019.2 0.0
12/12:30pm 34.0 32.7 12.4 27 12.9 SE 11 17 6 9 1019.5 1019.4 0.0
12/12:00pm 33.3 31.9 13.4 30 12.0 SSE 13 20 7 11 1019.7 1019.6 0.0
12/11:30am 31.3 29.6 12.6 31 11.1 SE 13 20 7 11 1019.9 1019.8 0.0
12/11:00am 30.1 28.7 12.1 33 10.5 ESE 11 20 6 11 1020.2 1020.0 0.0
12/10:30am 29.3 28.4 12.7 36 9.8 ESE 9 17 5 9 1020.1 1019.9 0.0
12/10:00am 27.9 26.8 11.9 37 9.2 E 9 17 5 9 1020.3 1020.1 0.0
12/09:30am 26.8 25.1 12.5 41 8.3 ENE 13 20 7 11 1020.3 1020.1 0.0
12/09:00am 24.6 22.1 12.2 46 7.1 ESE 17 22 9 12 1020.4 1020.2 0.0
12/08:30am 23.2 21.3 11.9 49 6.4 ESE 13 20 7 11 1020.6 1020.4 0.0
12/08:00am 22.2 20.4 12.2 53 5.7 ESE 13 22 7 12 1020.5 1020.3 0.0
12/07:30am 20.0 18.6 12.3 61 4.3 ENE 11 17 6 9 1020.7 1020.5 0.0
12/07:00am 18.3 17.2 11.8 66 3.6 ENE 9 20 5 11 1020.6 1020.4 0.0
12/06:30am 16.2 14.8 10.9 71 2.8 E 9 13 5 7 1020.6 1020.4 0.0
12/06:00am 14.8 13.7 10.6 76 2.2 E 7 11 4 6 1020.6 1020.4 0.0
12/05:30am 13.8 11.8 10.2 79 1.9 ESE 11 15 6 8 1020.7 1020.5 0.0
12/05:00am 13.4 11.7 10.0 80 1.8 ESE 9 15 5 8 1020.6 1020.4 0.0
12/04:30am 13.5 11.9 10.1 80 1.8 SE 9 13 5 7 1020.5 1020.3 0.0
12/04:00am 14.0 12.3 10.0 77 2.1 ESE 9 13 5 7 1020.3 1020.1 0.0
12/03:30am 15.0 13.4 10.2 73 2.5 ESE 9 15 5 8 1019.9 1019.8 0.0
12/03:00am 15.3 12.7 10.7 74 2.4 SE 15 19 8 10 1019.4 1019.3 0.0
12/02:30am 15.8 13.7 11.2 74 2.5 SE 13 15 7 8 1019.3 1019.2 0.0
12/02:00am 16.1 14.9 11.7 75 2.4 SE 9 17 5 9 1019.4 1019.3 0.0
12/01:30am 16.5 15.5 12.3 76 2.3 SE 9 15 5 8 1019.7 1019.6 0.0
12/01:00am 17.0 16.6 12.9 77 2.3 SE 7 11 4 6 1019.9 1019.8 0.0
12/12:30am 17.2 16.9 13.3 78 2.2 SE 7 11 4 6 1019.9 1019.8 0.0
12/12:00am 17.7 17.7 14.2 80 2.0 SE 7 11 4 6 1020.1 1019.9 0.0
 
Date/Time
WST
Temp
°C
App
Temp
°C
Dew
Point
°C
Rel
Hum
%
Delta-T
°C
Wind Press
QNH
hPa
Press
MSL
hPa
Rain since
9am
mm
Dir  Spd
km/h
Gust
km/h
Spd
kts
Gust
kts
11/11:30pm 17.8 18.2 15.2 85 1.5 SSE 7 13 4 7 1020.3 1020.1 0.0
11/11:00pm 18.0 18.3 16.0 88 1.2 SSE 9 15 5 8 1020.3 1020.1 0.0
11/10:30pm 18.0 17.9 16.0 88 1.2 SSE 11 13 6 7 1020.3 1020.1 0.0
11/10:00pm 18.4 18.3 16.0 86 1.4 SSE 11 15 6 8 1020.2 1020.0 0.0
11/09:30pm 18.8 18.8 16.2 85 1.6 SSE 11 17 6 9 1020.2 1020.0 0.0
11/09:00pm 19.0 18.5 16.0 83 1.8 SSE 13 19 7 10 1019.9 1019.8 0.0
11/08:30pm 19.2 18.7 15.9 81 2.0 SSE 13 19 7 10 1019.6 1019.5 0.0
11/08:00pm 19.7 18.9 16.0 79 2.2 SSE 15 20 8 11 1019.3 1019.2 0.0
11/07:30pm 20.3 18.3 15.5 74 2.9 SSE 20 28 11 15 1019.1 1019.0 0.0
11/07:00pm 21.4 19.5 15.7 70 3.4 SSE 20 26 11 14 1019.0 1018.9 0.0
11/06:30pm 22.6 20.4 15.9 66 4.1 SSE 22 30 12 16 1018.7 1018.6 0.0
11/06:00pm 23.4 20.7 15.7 62 4.6 SSE 24 32 13 17 1018.5 1018.3 0.0
11/05:30pm 24.4 22.1 15.6 58 5.3 SSE 22 32 12 17 1018.5 1018.3 0.0
11/05:00pm 25.2 22.5 15.5 55 5.9 SSE 24 33 13 18 1018.5 1018.3 0.0
11/04:30pm 25.9 22.7 15.3 52 6.4 S 26 35 14 19 1018.5 1018.3 0.0
11/04:00pm 26.5 23.6 15.2 49 6.8 SSE 24 35 13 19 1018.7 1018.6 0.0
11/03:30pm 25.9 23.0 15.0 51 6.6 SE 24 33 13 18 1019.2 1019.1 0.0
11/03:00pm 26.0 22.7 15.1 51 6.6 SSE 26 35 14 19 1019.6 1019.5 0.0
11/02:30pm 25.8 22.9 15.2 52 6.4 SE 24 32 13 17 1019.7 1019.6 0.0
11/02:00pm 24.5 20.2 14.3 53 6.0 SSE 30 43 16 23 1020.2 1020.0 0.0
11/01:30pm 25.8 21.1 14.3 49 6.9 SSE 32 41 17 22 1020.4 1020.2 0.0
11/01:00pm 25.3 20.9 14.1 50 6.6 SSE 30 39 16 21 1020.5 1020.3 0.0
11/12:30pm 26.4 22.5 14.5 48 7.1 SSE 28 35 15 19 1020.7 1020.5 0.0
11/12:00pm 26.8 23.5 13.9 45 7.7 SSE 24 33 13 18 1020.7 1020.5 0.0
11/11:30am 27.7 24.9 13.3 41 8.5 SE 20 32 11 17 1020.5 1020.3 0.0
11/11:00am 26.7 23.3 11.2 38 8.8 SSE 20 33 11 18 1020.7 1020.5 0.0
11/10:30am 26.2 22.8 11.2 39 8.5 SE 20 30 11 16 1020.8 1020.6 0.0
11/10:00am 24.3 20.8 10.9 43 7.5 SE 20 30 11 16 1021.1 1020.9 0.0
11/09:30am 23.4 20.8 12.1 49 6.4 ESE 17 26 9 14 1021.4 1021.2 0.0
11/09:00am 21.3 17.9 11.1 52 5.6 SE 20 30 11 16 1021.7 1021.5 0.0
11/08:30am 20.1 16.8 11.6 58 4.7 SE 20 30 11 16 1021.9 1021.7 0.0
11/08:00am 18.9 16.1 11.5 62 4.1 ESE 17 28 9 15 1022.1 1021.9 0.0
11/07:30am 17.4 14.0 11.2 67 3.4 SE 20 30 11 16 1022.2 1022.0 0.0
11/07:00am 16.3 13.2 11.5 73 2.6 SE 19 28 10 15 1022.1 1021.9 0.0
11/06:30am 15.2 12.0 11.4 78 2.0 SE 19 26 10 14 1022.0 1021.8 0.0
11/06:00am 14.2 11.0 11.4 83 1.5 SE 19 28 10 15 1021.8 1021.6 0.0
11/05:30am 13.2 11.1 11.1 87 1.1 SE 13 19 7 10 1021.7 1021.5 0.0
11/05:00am 12.9 11.4 10.6 86 1.2 SE 9 15 5 8 1021.4 1021.2 0.0
11/04:30am 13.2 11.3 10.6 84 1.4 SE 11 19 6 10 1021.2 1021.0 0.0
11/04:00am 13.5 10.9 10.7 83 1.5 SE 15 20 8 11 1021.1 1020.9 0.0
11/03:30am 13.9 11.7 10.9 82 1.6 SE 13 19 7 10 1020.9 1020.7 0.0
11/03:00am 14.3 11.8 11.1 81 1.7 SE 15 24 8 13 1020.9 1020.7 0.0
11/02:30am 14.6 12.1 11.2 80 1.8 SE 15 20 8 11 1020.9 1020.7 0.0
11/02:00am 15.0 12.3 11.6 80 1.8 SE 17 30 9 16 1020.8 1020.6 0.0
11/01:30am 15.2 12.1 11.6 79 1.9 SE 19 26 10 14 1020.5 1020.3 0.0
11/01:00am 15.6 12.6 12.0 79 2.0 SE 19 26 10 14 1020.4 1020.2 0.0
11/12:30am 15.7 13.1 12.1 79 2.0 SSE 17 24 9 13 1020.3 1020.1 0.0
11/12:00am 16.1 13.2 12.3 78 2.1 SE 19 30 10 16 1020.4 1020.2 0.0
 
Date/Time
WST
Temp
°C
App
Temp
°C
Dew
Point
°C
Rel
Hum
%
Delta-T
°C
Wind Press
QNH
hPa
Press
MSL
hPa
Rain since
9am
mm
Dir  Spd
km/h
Gust
km/h
Spd
kts
Gust
kts
10/11:30pm 16.3 13.3 12.7 79 2.0 SE 20 28 11 15 1020.3 1020.1 0.0
10/11:00pm 16.6 13.7 12.9 79 2.1 SE 20 32 11 17 1020.3 1020.1 0.0
10/10:30pm 16.9 14.0 13.0 78 2.2 SE 20 32 11 17 1020.4 1020.2 0.0
10/10:00pm 17.2 14.4 13.3 78 2.2 SSE 20 32 11 17 1020.5 1020.3 0.0
10/09:30pm 17.4 14.8 13.9 80 2.0 SE 20 30 11 16 1020.7 1020.5 0.0
10/09:00pm 17.6 14.7 13.9 79 2.1 SE 22 37 12 20 1020.8 1020.6 0.0
10/08:30pm 17.7 14.3 13.8 78 2.2 SSE 24 33 13 18 1020.9 1020.7 0.0
10/08:00pm 17.9 14.5 13.6 76 2.4 SSE 24 37 13 20 1021.0 1020.8 0.0

Other formats

Comma delimited format used in spreadsheet applications
http://www.bom.gov.au/fwo/IDW60801/IDW60801.95641.axf

JavaScript Object Notation format (JSON) in row-major order
http://www.bom.gov.au/fwo/IDW60801/IDW60801.95641.json

Data quality

Most of these data are generated automatically and are frequently updated. Quality checks on data are not normally performed. It is possible for incorrect values to appear. Refer to information at About Latest Weather Observations and please check the disclaimer before using these data.